sensor_id;sensor_type;location;lat;lon;timestamp;P1;durP1;ratioP1;P2;durP2;ratioP2
70126;SDS011;57491;42.694;23.314;2023-10-31T00:01:45;12.88;;;6.95;;
70126;SDS011;57491;42.694;23.314;2023-10-31T00:04:14;10.27;;;6.47;;
70126;SDS011;57491;42.694;23.314;2023-10-31T00:06:41;13.23;;;6.85;;
70126;SDS011;57491;42.694;23.314;2023-10-31T00:09:08;12.57;;;7.27;;
70126;SDS011;57491;42.694;23.314;2023-10-31T00:11:37;12.80;;;6.97;;
70126;SDS011;57491;42.694;23.314;2023-10-31T00:14:04;11.35;;;6.28;;
70126;SDS011;57491;42.694;23.314;2023-10-31T00:16:32;10.60;;;6.90;;
70126;SDS011;57491;42.694;23.314;2023-10-31T00:19:00;14.25;;;5.78;;
70126;SDS011;57491;42.694;23.314;2023-10-31T00:21:27;14.95;;;6.47;;
70126;SDS011;57491;42.694;23.314;2023-10-31T00:23:54;10.85;;;7.03;;
70126;SDS011;57491;42.694;23.314;2023-10-31T00:26:21;11.23;;;5.40;;
70126;SDS011;57491;42.694;23.314;2023-10-31T00:28:48;17.47;;;6.23;;
70126;SDS011;57491;42.694;23.314;2023-10-31T00:31:15;13.70;;;6.37;;
70126;SDS011;57491;42.694;23.314;2023-10-31T00:33:42;12.60;;;5.83;;
70126;SDS011;57491;42.694;23.314;2023-10-31T00:36:11;14.63;;;6.35;;
70126;SDS011;57491;42.694;23.314;2023-10-31T00:38:38;10.88;;;5.60;;
70126;SDS011;57491;42.694;23.314;2023-10-31T00:41:05;10.75;;;5.63;;
70126;SDS011;57491;42.694;23.314;2023-10-31T00:43:32;8.53;;;4.97;;
70126;SDS011;57491;42.694;23.314;2023-10-31T00:45:59;11.27;;;5.00;;
70126;SDS011;57491;42.694;23.314;2023-10-31T00:48:26;9.77;;;5.82;;
70126;SDS011;57491;42.694;23.314;2023-10-31T00:50:53;11.05;;;5.15;;
70126;SDS011;57491;42.694;23.314;2023-10-31T00:53:21;8.07;;;5.38;;
70126;SDS011;57491;42.694;23.314;2023-10-31T00:55:48;10.27;;;5.43;;
70126;SDS011;57491;42.694;23.314;2023-10-31T00:58:15;9.03;;;5.10;;
70126;SDS011;57491;42.694;23.314;2023-10-31T01:00:42;8.48;;;5.35;;
70126;SDS011;57491;42.694;23.314;2023-10-31T01:03:09;11.73;;;5.43;;
70126;SDS011;57491;42.694;23.314;2023-10-31T01:05:36;9.45;;;5.50;;
70126;SDS011;57491;42.694;23.314;2023-10-31T01:08:03;11.02;;;5.82;;
70126;SDS011;57491;42.694;23.314;2023-10-31T01:10:32;8.90;;;5.28;;
70126;SDS011;57491;42.694;23.314;2023-10-31T01:13:00;12.65;;;6.68;;
70126;SDS011;57491;42.694;23.314;2023-10-31T01:15:27;12.37;;;6.30;;
70126;SDS011;57491;42.694;23.314;2023-10-31T01:17:54;10.48;;;5.80;;
70126;SDS011;57491;42.694;23.314;2023-10-31T01:20:21;13.37;;;6.53;;
70126;SDS011;57491;42.694;23.314;2023-10-31T01:22:48;13.25;;;6.70;;
70126;SDS011;57491;42.694;23.314;2023-10-31T01:25:15;9.98;;;5.85;;
70126;SDS011;57491;42.694;23.314;2023-10-31T01:27:44;15.30;;;5.87;;
70126;SDS011;57491;42.694;23.314;2023-10-31T01:30:12;10.07;;;5.70;;
70126;SDS011;57491;42.694;23.314;2023-10-31T01:35:06;11.13;;;6.07;;
70126;SDS011;57491;42.694;23.314;2023-10-31T01:37:34;8.40;;;6.10;;
70126;SDS011;57491;42.694;23.314;2023-10-31T01:40:01;8.95;;;5.53;;
70126;SDS011;57491;42.694;23.314;2023-10-31T01:42:28;9.30;;;5.38;;
70126;SDS011;57491;42.694;23.314;2023-10-31T01:44:57;12.13;;;6.28;;
70126;SDS011;57491;42.694;23.314;2023-10-31T01:47:24;13.52;;;6.00;;
70126;SDS011;57491;42.694;23.314;2023-10-31T01:49:51;12.52;;;6.35;;
70126;SDS011;57491;42.694;23.314;2023-10-31T01:52:18;11.07;;;5.53;;
70126;SDS011;57491;42.694;23.314;2023-10-31T01:54:45;11.13;;;5.57;;
70126;SDS011;57491;42.694;23.314;2023-10-31T01:57:13;11.02;;;6.07;;
70126;SDS011;57491;42.694;23.314;2023-10-31T01:59:41;12.02;;;6.18;;
70126;SDS011;57491;42.694;23.314;2023-10-31T02:02:10;9.85;;;5.68;;
70126;SDS011;57491;42.694;23.314;2023-10-31T02:04:37;9.63;;;6.30;;
70126;SDS011;57491;42.694;23.314;2023-10-31T02:07:04;11.85;;;5.50;;
70126;SDS011;57491;42.694;23.314;2023-10-31T02:09:30;9.45;;;5.43;;
70126;SDS011;57491;42.694;23.314;2023-10-31T02:11:58;12.27;;;6.15;;
70126;SDS011;57491;42.694;23.314;2023-10-31T02:14:25;15.87;;;6.17;;
70126;SDS011;57491;42.694;23.314;2023-10-31T02:16:52;9.27;;;5.45;;
70126;SDS011;57491;42.694;23.314;2023-10-31T02:19:20;10.02;;;5.85;;
70126;SDS011;57491;42.694;23.314;2023-10-31T02:21:49;10.82;;;5.55;;
70126;SDS011;57491;42.694;23.314;2023-10-31T02:24:16;13.05;;;6.25;;
70126;SDS011;57491;42.694;23.314;2023-10-31T02:26:43;12.60;;;6.23;;
70126;SDS011;57491;42.694;23.314;2023-10-31T02:29:10;14.55;;;5.88;;
70126;SDS011;57491;42.694;23.314;2023-10-31T02:31:37;15.23;;;6.13;;
70126;SDS011;57491;42.694;23.314;2023-10-31T02:34:05;12.32;;;5.70;;
70126;SDS011;57491;42.694;23.314;2023-10-31T02:36:32;10.17;;;5.73;;
70126;SDS011;57491;42.694;23.314;2023-10-31T02:39:01;12.05;;;5.85;;
70126;SDS011;57491;42.694;23.314;2023-10-31T02:41:28;8.98;;;5.22;;
70126;SDS011;57491;42.694;23.314;2023-10-31T02:43:55;10.37;;;5.80;;
70126;SDS011;57491;42.694;23.314;2023-10-31T02:46:23;11.07;;;5.53;;
70126;SDS011;57491;42.694;23.314;2023-10-31T02:48:50;10.80;;;5.50;;
70126;SDS011;57491;42.694;23.314;2023-10-31T02:51:17;12.20;;;6.60;;
70126;SDS011;57491;42.694;23.314;2023-10-31T02:53:44;10.27;;;5.90;;
70126;SDS011;57491;42.694;23.314;2023-10-31T02:56:12;8.85;;;6.18;;
70126;SDS011;57491;42.694;23.314;2023-10-31T02:58:39;13.60;;;6.40;;
70126;SDS011;57491;42.694;23.314;2023-10-31T03:01:06;11.40;;;7.37;;
70126;SDS011;57491;42.694;23.314;2023-10-31T03:03:33;9.82;;;6.20;;
70126;SDS011;57491;42.694;23.314;2023-10-31T03:06:01;12.23;;;6.23;;
70126;SDS011;57491;42.694;23.314;2023-10-31T03:08:28;12.33;;;7.07;;
70126;SDS011;57491;42.694;23.314;2023-10-31T03:10:55;11.07;;;6.68;;
70126;SDS011;57491;42.694;23.314;2023-10-31T03:13:23;9.93;;;6.88;;
70126;SDS011;57491;42.694;23.314;2023-10-31T03:15:50;10.88;;;7.80;;
70126;SDS011;57491;42.694;23.314;2023-10-31T03:18:17;14.45;;;8.02;;
70126;SDS011;57491;42.694;23.314;2023-10-31T03:20:44;14.98;;;8.95;;
70126;SDS011;57491;42.694;23.314;2023-10-31T03:23:12;16.52;;;9.20;;
70126;SDS011;57491;42.694;23.314;2023-10-31T03:25:39;21.77;;;9.18;;
70126;SDS011;57491;42.694;23.314;2023-10-31T03:28:09;18.05;;;9.50;;
70126;SDS011;57491;42.694;23.314;2023-10-31T03:30:46;17.70;;;9.05;;
70126;SDS011;57491;42.694;23.314;2023-10-31T03:33:13;16.13;;;9.73;;
70126;SDS011;57491;42.694;23.314;2023-10-31T03:35:41;18.93;;;9.57;;
70126;SDS011;57491;42.694;23.314;2023-10-31T03:38:08;15.70;;;10.00;;
70126;SDS011;57491;42.694;23.314;2023-10-31T03:40:35;17.93;;;8.67;;
70126;SDS011;57491;42.694;23.314;2023-10-31T03:43:02;16.30;;;9.80;;
70126;SDS011;57491;42.694;23.314;2023-10-31T03:45:29;21.20;;;9.60;;
70126;SDS011;57491;42.694;23.314;2023-10-31T03:47:58;26.33;;;11.45;;
70126;SDS011;57491;42.694;23.314;2023-10-31T03:50:25;19.00;;;9.25;;
70126;SDS011;57491;42.694;23.314;2023-10-31T03:52:52;15.57;;;8.60;;
70126;SDS011;57491;42.694;23.314;2023-10-31T03:55:19;20.38;;;11.23;;
70126;SDS011;57491;42.694;23.314;2023-10-31T03:57:46;24.05;;;9.63;;
70126;SDS011;57491;42.694;23.314;2023-10-31T04:00:14;22.55;;;9.43;;
70126;SDS011;57491;42.694;23.314;2023-10-31T04:02:41;19.55;;;8.73;;
70126;SDS011;57491;42.694;23.314;2023-10-31T04:05:10;17.80;;;8.53;;
70126;SDS011;57491;42.694;23.314;2023-10-31T04:07:37;13.55;;;7.47;;
70126;SDS011;57491;42.694;23.314;2023-10-31T04:10:05;15.65;;;8.60;;
70126;SDS011;57491;42.694;23.314;2023-10-31T04:12:32;18.45;;;8.52;;
70126;SDS011;57491;42.694;23.314;2023-10-31T04:15:00;16.17;;;8.52;;
70126;SDS011;57491;42.694;23.314;2023-10-31T04:17:28;17.70;;;8.00;;
70126;SDS011;57491;42.694;23.314;2023-10-31T04:19:55;18.73;;;9.32;;
70126;SDS011;57491;42.694;23.314;2023-10-31T04:22:23;14.27;;;8.30;;
70126;SDS011;57491;42.694;23.314;2023-10-31T04:24:50;13.13;;;9.23;;
70126;SDS011;57491;42.694;23.314;2023-10-31T04:27:17;15.87;;;8.13;;
70126;SDS011;57491;42.694;23.314;2023-10-31T04:29:44;13.27;;;7.57;;
70126;SDS011;57491;42.694;23.314;2023-10-31T04:32:12;17.13;;;8.50;;
70126;SDS011;57491;42.694;23.314;2023-10-31T04:34:39;20.05;;;9.18;;
70126;SDS011;57491;42.694;23.314;2023-10-31T04:37:06;15.45;;;9.13;;
70126;SDS011;57491;42.694;23.314;2023-10-31T04:39:34;16.48;;;10.30;;
70126;SDS011;57491;42.694;23.314;2023-10-31T04:42:01;21.08;;;10.05;;
70126;SDS011;57491;42.694;23.314;2023-10-31T04:44:28;15.70;;;9.40;;
70126;SDS011;57491;42.694;23.314;2023-10-31T04:46:57;18.37;;;9.03;;
70126;SDS011;57491;42.694;23.314;2023-10-31T04:49:28;17.25;;;9.10;;
70126;SDS011;57491;42.694;23.314;2023-10-31T04:51:58;17.98;;;10.13;;
70126;SDS011;57491;42.694;23.314;2023-10-31T04:54:27;18.08;;;9.25;;
70126;SDS011;57491;42.694;23.314;2023-10-31T04:56:56;16.58;;;8.82;;
70126;SDS011;57491;42.694;23.314;2023-10-31T04:59:23;21.13;;;8.98;;
70126;SDS011;57491;42.694;23.314;2023-10-31T05:01:50;20.40;;;9.35;;
70126;SDS011;57491;42.694;23.314;2023-10-31T05:04:17;20.85;;;9.43;;
70126;SDS011;57491;42.694;23.314;2023-10-31T05:06:45;18.98;;;8.88;;
70126;SDS011;57491;42.694;23.314;2023-10-31T05:09:12;16.88;;;9.63;;
70126;SDS011;57491;42.694;23.314;2023-10-31T05:11:41;18.02;;;8.60;;
70126;SDS011;57491;42.694;23.314;2023-10-31T05:14:09;31.55;;;21.38;;
70126;SDS011;57491;42.694;23.314;2023-10-31T05:16:40;19.13;;;10.77;;
70126;SDS011;57491;42.694;23.314;2023-10-31T05:19:07;18.77;;;8.88;;
70126;SDS011;57491;42.694;23.314;2023-10-31T05:21:35;25.97;;;9.83;;
70126;SDS011;57491;42.694;23.314;2023-10-31T05:24:02;21.98;;;9.73;;
70126;SDS011;57491;42.694;23.314;2023-10-31T05:26:29;21.30;;;9.43;;
70126;SDS011;57491;42.694;23.314;2023-10-31T05:28:56;19.20;;;9.95;;
70126;SDS011;57491;42.694;23.314;2023-10-31T05:31:25;21.83;;;9.40;;
70126;SDS011;57491;42.694;23.314;2023-10-31T05:33:52;23.33;;;10.70;;
70126;SDS011;57491;42.694;23.314;2023-10-31T05:36:19;21.73;;;9.82;;
70126;SDS011;57491;42.694;23.314;2023-10-31T05:38:47;19.02;;;9.90;;
70126;SDS011;57491;42.694;23.314;2023-10-31T05:41:15;24.35;;;10.98;;
70126;SDS011;57491;42.694;23.314;2023-10-31T05:43:42;25.40;;;10.77;;
70126;SDS011;57491;42.694;23.314;2023-10-31T05:46:09;17.33;;;10.45;;
70126;SDS011;57491;42.694;23.314;2023-10-31T05:48:40;17.45;;;9.60;;
70126;SDS011;57491;42.694;23.314;2023-10-31T05:51:10;18.90;;;11.23;;
70126;SDS011;57491;42.694;23.314;2023-10-31T05:53:39;16.20;;;9.40;;
70126;SDS011;57491;42.694;23.314;2023-10-31T05:56:08;16.70;;;9.93;;
70126;SDS011;57491;42.694;23.314;2023-10-31T05:58:36;21.15;;;10.88;;
70126;SDS011;57491;42.694;23.314;2023-10-31T06:01:04;20.63;;;11.48;;
70126;SDS011;57491;42.694;23.314;2023-10-31T06:03:31;18.35;;;10.52;;
70126;SDS011;57491;42.694;23.314;2023-10-31T06:06:00;19.58;;;10.95;;
70126;SDS011;57491;42.694;23.314;2023-10-31T06:08:27;19.38;;;10.48;;
70126;SDS011;57491;42.694;23.314;2023-10-31T06:10:54;17.98;;;10.38;;
70126;SDS011;57491;42.694;23.314;2023-10-31T06:13:22;25.02;;;11.05;;
70126;SDS011;57491;42.694;23.314;2023-10-31T06:15:51;16.83;;;9.98;;
70126;SDS011;57491;42.694;23.314;2023-10-31T06:18:18;17.13;;;10.60;;
70126;SDS011;57491;42.694;23.314;2023-10-31T06:20:45;16.85;;;8.73;;
70126;SDS011;57491;42.694;23.314;2023-10-31T06:23:14;20.52;;;10.85;;
70126;SDS011;57491;42.694;23.314;2023-10-31T06:25:41;19.35;;;11.32;;
70126;SDS011;57491;42.694;23.314;2023-10-31T06:28:08;17.13;;;9.80;;
70126;SDS011;57491;42.694;23.314;2023-10-31T06:30:35;21.20;;;10.40;;
70126;SDS011;57491;42.694;23.314;2023-10-31T06:33:02;18.00;;;10.55;;
70126;SDS011;57491;42.694;23.314;2023-10-31T06:35:29;20.67;;;10.80;;
70126;SDS011;57491;42.694;23.314;2023-10-31T06:37:56;22.63;;;11.15;;
70126;SDS011;57491;42.694;23.314;2023-10-31T06:40:25;27.83;;;10.68;;
70126;SDS011;57491;42.694;23.314;2023-10-31T06:42:52;22.88;;;11.80;;
70126;SDS011;57491;42.694;23.314;2023-10-31T06:45:19;19.70;;;12.40;;
70126;SDS011;57491;42.694;23.314;2023-10-31T06:47:46;24.15;;;13.73;;
70126;SDS011;57491;42.694;23.314;2023-10-31T06:50:14;24.75;;;11.32;;
70126;SDS011;57491;42.694;23.314;2023-10-31T06:52:41;25.88;;;12.35;;
70126;SDS011;57491;42.694;23.314;2023-10-31T06:55:08;22.07;;;11.60;;
70126;SDS011;57491;42.694;23.314;2023-10-31T06:57:36;18.80;;;10.47;;
70126;SDS011;57491;42.694;23.314;2023-10-31T07:00:04;21.95;;;12.45;;
70126;SDS011;57491;42.694;23.314;2023-10-31T07:02:34;22.25;;;11.32;;
70126;SDS011;57491;42.694;23.314;2023-10-31T07:05:01;29.75;;;13.80;;
70126;SDS011;57491;42.694;23.314;2023-10-31T07:07:30;39.17;;;14.40;;
70126;SDS011;57491;42.694;23.314;2023-10-31T07:09:57;30.77;;;13.35;;
70126;SDS011;57491;42.694;23.314;2023-10-31T07:12:24;53.75;;;18.80;;
70126;SDS011;57491;42.694;23.314;2023-10-31T07:17:20;30.38;;;15.85;;
70126;SDS011;57491;42.694;23.314;2023-10-31T07:19:47;28.97;;;13.13;;
70126;SDS011;57491;42.694;23.314;2023-10-31T07:22:14;23.40;;;11.80;;
70126;SDS011;57491;42.694;23.314;2023-10-31T07:24:42;27.67;;;12.43;;
70126;SDS011;57491;42.694;23.314;2023-10-31T07:27:09;18.25;;;12.20;;
70126;SDS011;57491;42.694;23.314;2023-10-31T07:29:38;14.98;;;10.65;;
70126;SDS011;57491;42.694;23.314;2023-10-31T07:32:07;19.88;;;11.32;;
70126;SDS011;57491;42.694;23.314;2023-10-31T07:34:35;15.52;;;11.05;;
70126;SDS011;57491;42.694;23.314;2023-10-31T07:37:02;19.08;;;11.10;;
70126;SDS011;57491;42.694;23.314;2023-10-31T07:39:29;13.07;;;9.57;;
70126;SDS011;57491;42.694;23.314;2023-10-31T07:41:56;16.98;;;10.27;;
70126;SDS011;57491;42.694;23.314;2023-10-31T07:44:23;18.37;;;10.07;;
70126;SDS011;57491;42.694;23.314;2023-10-31T07:46:50;15.97;;;10.67;;
70126;SDS011;57491;42.694;23.314;2023-10-31T07:49:18;16.92;;;11.05;;
70126;SDS011;57491;42.694;23.314;2023-10-31T07:51:45;18.60;;;10.75;;
70126;SDS011;57491;42.694;23.314;2023-10-31T07:54:13;23.33;;;12.30;;
70126;SDS011;57491;42.694;23.314;2023-10-31T07:56:41;21.10;;;11.50;;
70126;SDS011;57491;42.694;23.314;2023-10-31T07:59:08;19.65;;;11.18;;
70126;SDS011;57491;42.694;23.314;2023-10-31T08:04:03;17.10;;;10.50;;
70126;SDS011;57491;42.694;23.314;2023-10-31T08:06:32;15.52;;;9.90;;
70126;SDS011;57491;42.694;23.314;2023-10-31T08:08:59;20.27;;;10.07;;
70126;SDS011;57491;42.694;23.314;2023-10-31T08:11:26;19.33;;;10.23;;
70126;SDS011;57491;42.694;23.314;2023-10-31T08:13:54;14.02;;;9.55;;
70126;SDS011;57491;42.694;23.314;2023-10-31T08:16:21;16.90;;;11.20;;
70126;SDS011;57491;42.694;23.314;2023-10-31T08:18:50;17.27;;;10.32;;
70126;SDS011;57491;42.694;23.314;2023-10-31T08:21:18;15.48;;;10.02;;
70126;SDS011;57491;42.694;23.314;2023-10-31T08:23:46;16.02;;;10.00;;
70126;SDS011;57491;42.694;23.314;2023-10-31T08:26:13;14.60;;;9.23;;
70126;SDS011;57491;42.694;23.314;2023-10-31T08:28:40;14.95;;;9.52;;
70126;SDS011;57491;42.694;23.314;2023-10-31T08:31:07;11.77;;;9.40;;
70126;SDS011;57491;42.694;23.314;2023-10-31T08:33:34;15.88;;;9.35;;
70126;SDS011;57491;42.694;23.314;2023-10-31T08:36:01;15.27;;;9.18;;
70126;SDS011;57491;42.694;23.314;2023-10-31T08:38:29;13.10;;;9.45;;
70126;SDS011;57491;42.694;23.314;2023-10-31T08:40:57;16.15;;;7.97;;
70126;SDS011;57491;42.694;23.314;2023-10-31T08:43:25;12.07;;;7.95;;
70126;SDS011;57491;42.694;23.314;2023-10-31T08:45:52;17.25;;;8.27;;
70126;SDS011;57491;42.694;23.314;2023-10-31T08:48:19;14.13;;;7.65;;
70126;SDS011;57491;42.694;23.314;2023-10-31T08:50:46;10.90;;;6.35;;
70126;SDS011;57491;42.694;23.314;2023-10-31T08:53:13;11.43;;;6.68;;
70126;SDS011;57491;42.694;23.314;2023-10-31T08:55:40;12.25;;;6.45;;
70126;SDS011;57491;42.694;23.314;2023-10-31T08:58:10;10.63;;;6.72;;
70126;SDS011;57491;42.694;23.314;2023-10-31T09:00:38;11.18;;;7.43;;
70126;SDS011;57491;42.694;23.314;2023-10-31T09:03:06;13.30;;;8.27;;
70126;SDS011;57491;42.694;23.314;2023-10-31T09:05:33;16.23;;;8.00;;
70126;SDS011;57491;42.694;23.314;2023-10-31T09:10:27;12.75;;;9.02;;
70126;SDS011;57491;42.694;23.314;2023-10-31T09:12:55;13.02;;;9.00;;
70126;SDS011;57491;42.694;23.314;2023-10-31T09:15:23;16.75;;;8.95;;
70126;SDS011;57491;42.694;23.314;2023-10-31T09:17:50;13.13;;;8.02;;
70126;SDS011;57491;42.694;23.314;2023-10-31T09:20:17;10.65;;;7.63;;
70126;SDS011;57491;42.694;23.314;2023-10-31T09:22:44;15.45;;;9.00;;
70126;SDS011;57491;42.694;23.314;2023-10-31T09:30:07;13.05;;;9.32;;
70126;SDS011;57491;42.694;23.314;2023-10-31T09:32:36;14.00;;;8.63;;
70126;SDS011;57491;42.694;23.314;2023-10-31T09:35:03;10.60;;;7.47;;
70126;SDS011;57491;42.694;23.314;2023-10-31T09:37:31;12.68;;;8.57;;
70126;SDS011;57491;42.694;23.314;2023-10-31T09:39:58;13.73;;;9.93;;
70126;SDS011;57491;42.694;23.314;2023-10-31T09:44:52;14.93;;;7.38;;
70126;SDS011;57491;42.694;23.314;2023-10-31T09:47:20;19.92;;;7.38;;
70126;SDS011;57491;42.694;23.314;2023-10-31T09:49:49;15.70;;;7.65;;
70126;SDS011;57491;42.694;23.314;2023-10-31T09:52:17;16.50;;;8.27;;
70126;SDS011;57491;42.694;23.314;2023-10-31T09:54:45;13.15;;;8.60;;
70126;SDS011;57491;42.694;23.314;2023-10-31T09:57:15;16.90;;;11.07;;
70126;SDS011;57491;42.694;23.314;2023-10-31T09:59:43;14.85;;;10.18;;
70126;SDS011;57491;42.694;23.314;2023-10-31T10:02:11;16.38;;;7.95;;
70126;SDS011;57491;42.694;23.314;2023-10-31T10:04:38;11.15;;;7.03;;
70126;SDS011;57491;42.694;23.314;2023-10-31T10:07:07;16.40;;;7.75;;
70126;SDS011;57491;42.694;23.314;2023-10-31T10:09:34;12.73;;;8.32;;
70126;SDS011;57491;42.694;23.314;2023-10-31T10:12:01;13.23;;;8.65;;
70126;SDS011;57491;42.694;23.314;2023-10-31T10:14:30;12.32;;;8.10;;
70126;SDS011;57491;42.694;23.314;2023-10-31T10:16:58;13.13;;;7.82;;
70126;SDS011;57491;42.694;23.314;2023-10-31T10:19:26;18.45;;;10.35;;
70126;SDS011;57491;42.694;23.314;2023-10-31T10:21:55;17.88;;;8.85;;
70126;SDS011;57491;42.694;23.314;2023-10-31T10:24:25;14.10;;;8.15;;
70126;SDS011;57491;42.694;23.314;2023-10-31T10:26:52;11.75;;;6.85;;
70126;SDS011;57491;42.694;23.314;2023-10-31T10:29:19;14.20;;;7.75;;
70126;SDS011;57491;42.694;23.314;2023-10-31T10:31:46;16.08;;;7.35;;
70126;SDS011;57491;42.694;23.314;2023-10-31T10:34:14;18.02;;;7.13;;
70126;SDS011;57491;42.694;23.314;2023-10-31T10:36:43;11.23;;;6.80;;
70126;SDS011;57491;42.694;23.314;2023-10-31T10:39:14;16.58;;;6.90;;
70126;SDS011;57491;42.694;23.314;2023-10-31T10:41:46;13.05;;;7.25;;
70126;SDS011;57491;42.694;23.314;2023-10-31T10:44:19;19.13;;;11.40;;
70126;SDS011;57491;42.694;23.314;2023-10-31T10:47:00;9.68;;;7.22;;
70126;SDS011;57491;42.694;23.314;2023-10-31T10:49:29;12.05;;;6.50;;
70126;SDS011;57491;42.694;23.314;2023-10-31T10:52:01;13.68;;;7.40;;
70126;SDS011;57491;42.694;23.314;2023-10-31T10:54:43;16.40;;;8.45;;
70126;SDS011;57491;42.694;23.314;2023-10-31T10:57:19;15.35;;;6.95;;
70126;SDS011;57491;42.694;23.314;2023-10-31T10:59:50;9.68;;;6.30;;
70126;SDS011;57491;42.694;23.314;2023-10-31T11:02:22;15.95;;;8.32;;
70126;SDS011;57491;42.694;23.314;2023-10-31T11:04:53;14.80;;;5.65;;
70126;SDS011;57491;42.694;23.314;2023-10-31T11:07:21;13.65;;;5.28;;
70126;SDS011;57491;42.694;23.314;2023-10-31T11:09:50;7.72;;;4.50;;
70126;SDS011;57491;42.694;23.314;2023-10-31T11:14:47;8.52;;;4.43;;
70126;SDS011;57491;42.694;23.314;2023-10-31T11:17:23;11.95;;;5.72;;
70126;SDS011;57491;42.694;23.314;2023-10-31T11:19:53;7.43;;;3.90;;
70126;SDS011;57491;42.694;23.314;2023-10-31T11:22:22;10.57;;;5.15;;
70126;SDS011;57491;42.694;23.314;2023-10-31T11:27:17;8.90;;;3.97;;
70126;SDS011;57491;42.694;23.314;2023-10-31T11:29:46;14.00;;;5.72;;
70126;SDS011;57491;42.694;23.314;2023-10-31T11:32:14;11.77;;;5.32;;
70126;SDS011;57491;42.694;23.314;2023-10-31T11:34:41;13.45;;;7.72;;
70126;SDS011;57491;42.694;23.314;2023-10-31T11:37:24;11.98;;;4.82;;
70126;SDS011;57491;42.694;23.314;2023-10-31T11:42:46;11.43;;;4.32;;
70126;SDS011;57491;42.694;23.314;2023-10-31T11:45:24;8.55;;;3.60;;
70126;SDS011;57491;42.694;23.314;2023-10-31T11:47:52;8.00;;;3.83;;
70126;SDS011;57491;42.694;23.314;2023-10-31T11:50:20;8.75;;;4.13;;
70126;SDS011;57491;42.694;23.314;2023-10-31T11:52:57;9.27;;;3.92;;
70126;SDS011;57491;42.694;23.314;2023-10-31T11:55:30;10.25;;;4.43;;
70126;SDS011;57491;42.694;23.314;2023-10-31T11:58:14;7.28;;;3.88;;
70126;SDS011;57491;42.694;23.314;2023-10-31T12:00:43;11.35;;;5.40;;
70126;SDS011;57491;42.694;23.314;2023-10-31T12:06:03;11.60;;;4.60;;
70126;SDS011;57491;42.694;23.314;2023-10-31T12:08:32;9.57;;;3.95;;
70126;SDS011;57491;42.694;23.314;2023-10-31T12:11:07;7.45;;;3.85;;
70126;SDS011;57491;42.694;23.314;2023-10-31T12:13:37;7.82;;;3.60;;
70126;SDS011;57491;42.694;23.314;2023-10-31T12:16:06;9.85;;;5.05;;
70126;SDS011;57491;42.694;23.314;2023-10-31T12:18:35;9.07;;;4.22;;
70126;SDS011;57491;42.694;23.314;2023-10-31T12:21:04;12.23;;;5.95;;
70126;SDS011;57491;42.694;23.314;2023-10-31T12:23:32;9.52;;;4.28;;
70126;SDS011;57491;42.694;23.314;2023-10-31T12:25:59;10.57;;;4.70;;
70126;SDS011;57491;42.694;23.314;2023-10-31T12:30:55;10.68;;;4.63;;
70126;SDS011;57491;42.694;23.314;2023-10-31T12:33:25;10.82;;;4.88;;
70126;SDS011;57491;42.694;23.314;2023-10-31T12:35:56;10.55;;;5.03;;
70126;SDS011;57491;42.694;23.314;2023-10-31T12:38:24;9.48;;;4.60;;
70126;SDS011;57491;42.694;23.314;2023-10-31T12:40:52;19.52;;;9.02;;
70126;SDS011;57491;42.694;23.314;2023-10-31T12:43:20;11.30;;;5.28;;
70126;SDS011;57491;42.694;23.314;2023-10-31T12:45:47;9.82;;;5.75;;
70126;SDS011;57491;42.694;23.314;2023-10-31T12:48:16;10.80;;;6.18;;
70126;SDS011;57491;42.694;23.314;2023-10-31T12:50:43;10.00;;;5.03;;
70126;SDS011;57491;42.694;23.314;2023-10-31T12:53:10;7.47;;;4.32;;
70126;SDS011;57491;42.694;23.314;2023-10-31T12:55:38;10.23;;;5.25;;
70126;SDS011;57491;42.694;23.314;2023-10-31T12:58:05;11.93;;;4.78;;
70126;SDS011;57491;42.694;23.314;2023-10-31T13:00:35;9.27;;;4.20;;
70126;SDS011;57491;42.694;23.314;2023-10-31T13:03:04;12.32;;;4.75;;
70126;SDS011;57491;42.694;23.314;2023-10-31T13:05:35;11.88;;;4.88;;
70126;SDS011;57491;42.694;23.314;2023-10-31T13:08:04;12.02;;;6.80;;
70126;SDS011;57491;42.694;23.314;2023-10-31T13:10:40;13.82;;;4.78;;
70126;SDS011;57491;42.694;23.314;2023-10-31T13:13:08;9.48;;;4.90;;
70126;SDS011;57491;42.694;23.314;2023-10-31T13:15:37;17.58;;;6.22;;
70126;SDS011;57491;42.694;23.314;2023-10-31T13:18:04;9.27;;;5.72;;
70126;SDS011;57491;42.694;23.314;2023-10-31T13:20:32;20.67;;;5.78;;
70126;SDS011;57491;42.694;23.314;2023-10-31T13:23:01;18.10;;;4.53;;
70126;SDS011;57491;42.694;23.314;2023-10-31T13:25:28;10.98;;;5.45;;
70126;SDS011;57491;42.694;23.314;2023-10-31T13:27:56;11.32;;;5.03;;
70126;SDS011;57491;42.694;23.314;2023-10-31T13:30:23;14.18;;;5.22;;
70126;SDS011;57491;42.694;23.314;2023-10-31T13:32:50;16.67;;;6.18;;
70126;SDS011;57491;42.694;23.314;2023-10-31T13:37:45;11.80;;;5.38;;
70126;SDS011;57491;42.694;23.314;2023-10-31T13:40:13;12.88;;;5.78;;
70126;SDS011;57491;42.694;23.314;2023-10-31T13:42:41;8.50;;;4.60;;
70126;SDS011;57491;42.694;23.314;2023-10-31T13:45:08;9.38;;;4.70;;
70126;SDS011;57491;42.694;23.314;2023-10-31T13:47:35;11.43;;;3.75;;
70126;SDS011;57491;42.694;23.314;2023-10-31T13:50:04;14.90;;;3.92;;
70126;SDS011;57491;42.694;23.314;2023-10-31T13:52:32;10.07;;;3.95;;
70126;SDS011;57491;42.694;23.314;2023-10-31T13:54:59;9.75;;;4.88;;
70126;SDS011;57491;42.694;23.314;2023-10-31T13:57:28;10.23;;;5.40;;
70126;SDS011;57491;42.694;23.314;2023-10-31T13:59:55;12.75;;;6.55;;
70126;SDS011;57491;42.694;23.314;2023-10-31T14:02:22;12.68;;;9.95;;
70126;SDS011;57491;42.694;23.314;2023-10-31T14:04:49;9.38;;;5.13;;
70126;SDS011;57491;42.694;23.314;2023-10-31T14:07:18;13.98;;;4.88;;
70126;SDS011;57491;42.694;23.314;2023-10-31T14:09:48;10.13;;;4.93;;
70126;SDS011;57491;42.694;23.314;2023-10-31T14:12:15;16.90;;;5.30;;
70126;SDS011;57491;42.694;23.314;2023-10-31T14:17:13;9.23;;;5.35;;
70126;SDS011;57491;42.694;23.314;2023-10-31T14:19:42;12.20;;;6.03;;
70126;SDS011;57491;42.694;23.314;2023-10-31T14:22:09;10.32;;;4.75;;
70126;SDS011;57491;42.694;23.314;2023-10-31T14:24:38;13.00;;;6.82;;
70126;SDS011;57491;42.694;23.314;2023-10-31T14:27:05;15.35;;;6.00;;
70126;SDS011;57491;42.694;23.314;2023-10-31T14:29:33;17.67;;;7.10;;
70126;SDS011;57491;42.694;23.314;2023-10-31T14:32:06;16.67;;;5.90;;
70126;SDS011;57491;42.694;23.314;2023-10-31T14:34:34;14.23;;;5.43;;
70126;SDS011;57491;42.694;23.314;2023-10-31T14:37:01;16.98;;;6.85;;
70126;SDS011;57491;42.694;23.314;2023-10-31T14:39:28;10.93;;;6.10;;
70126;SDS011;57491;42.694;23.314;2023-10-31T14:41:55;17.83;;;5.88;;
70126;SDS011;57491;42.694;23.314;2023-10-31T14:44:22;16.30;;;6.88;;
70126;SDS011;57491;42.694;23.314;2023-10-31T14:46:50;14.10;;;6.50;;
70126;SDS011;57491;42.694;23.314;2023-10-31T14:49:20;16.95;;;7.35;;
70126;SDS011;57491;42.694;23.314;2023-10-31T14:51:50;15.90;;;7.15;;
70126;SDS011;57491;42.694;23.314;2023-10-31T14:54:17;19.58;;;7.15;;
70126;SDS011;57491;42.694;23.314;2023-10-31T14:56:46;26.63;;;9.05;;
70126;SDS011;57491;42.694;23.314;2023-10-31T14:59:13;18.40;;;9.52;;
70126;SDS011;57491;42.694;23.314;2023-10-31T15:01:40;16.73;;;7.68;;